createdAt,value
2019-02-06T00:02:09.404Z,0.30
2019-02-06T00:04:39.175Z,0.30
2019-02-06T00:07:08.368Z,0.30
2019-02-06T00:09:37.347Z,0.30
2019-02-06T00:12:06.376Z,0.30
2019-02-06T00:14:35.722Z,0.20
2019-02-06T00:17:05.103Z,0.30
2019-02-06T00:19:35.546Z,0.30
2019-02-06T00:22:06.002Z,0.30
2019-02-06T00:24:34.856Z,0.40
2019-02-06T00:27:03.752Z,0.40
2019-02-06T00:29:32.746Z,0.40
2019-02-06T00:32:03.947Z,0.40
2019-02-06T00:34:33.480Z,0.40
2019-02-06T00:37:05.612Z,0.40
2019-02-06T00:39:34.452Z,0.40
2019-02-06T00:42:03.809Z,0.40
2019-02-06T00:44:33.026Z,0.50
2019-02-06T00:47:03.305Z,0.50
2019-02-06T00:49:32.297Z,0.40
2019-02-06T00:52:01.383Z,0.40
2019-02-06T00:54:30.730Z,0.40
2019-02-06T00:56:59.600Z,0.30
2019-02-06T00:59:28.391Z,0.40
2019-02-06T01:01:57.358Z,0.40
2019-02-06T01:04:26.591Z,0.40
2019-02-06T01:06:55.983Z,0.40
2019-02-06T01:09:24.867Z,0.40
2019-02-06T01:11:53.791Z,0.40
2019-02-06T01:14:22.534Z,0.40
2019-02-06T01:16:51.780Z,0.30
2019-02-06T01:19:20.743Z,0.30
2019-02-06T01:21:50.938Z,0.20
2019-02-06T01:24:19.839Z,0.20
2019-02-06T01:26:48.612Z,0.20
2019-02-06T01:29:17.477Z,0.20
2019-02-06T01:31:46.896Z,0.20
2019-02-06T01:34:15.909Z,0.20
2019-02-06T01:36:44.740Z,0.10
2019-02-06T01:39:13.689Z,0.10
2019-02-06T01:41:42.576Z,0.10
2019-02-06T01:44:11.546Z,0.10
2019-02-06T01:46:40.585Z,0.10
2019-02-06T01:49:09.762Z,0.20
2019-02-06T01:51:38.790Z,0.30
2019-02-06T01:54:08.129Z,0.10
2019-02-06T01:56:37.565Z,0.00
2019-02-06T01:59:06.630Z,-0.10
2019-02-06T02:01:35.732Z,-0.10
2019-02-06T02:04:05.179Z,-0.20
2019-02-06T02:06:34.302Z,-0.30
2019-02-06T02:09:04.479Z,-0.40
2019-02-06T02:11:33.517Z,-0.40
2019-02-06T02:14:02.544Z,-0.50
2019-02-06T02:16:31.344Z,-0.50
2019-02-06T02:19:00.306Z,-0.50
2019-02-06T02:21:29.238Z,-0.60
2019-02-06T02:23:58.238Z,-0.60
2019-02-06T02:26:27.301Z,-0.60
2019-02-06T02:28:56.173Z,-0.60
2019-02-06T02:31:26.361Z,-0.50
2019-02-06T02:33:55.237Z,-0.40
2019-02-06T02:36:24.962Z,-0.30
2019-02-06T02:38:53.933Z,-0.20
2019-02-06T02:41:22.838Z,-0.20
2019-02-06T02:43:51.644Z,-0.20
2019-02-06T02:46:20.616Z,-0.20
2019-02-06T02:48:49.438Z,-0.10
2019-02-06T02:51:18.356Z,-0.10
2019-02-06T02:53:47.436Z,0.10
2019-02-06T02:56:16.480Z,0.10
2019-02-06T02:58:45.640Z,0.20
2019-02-06T03:01:16.020Z,0.30
2019-02-06T03:03:46.502Z,0.30
2019-02-06T03:06:27.191Z,0.20
2019-02-06T03:08:45.963Z,0.20
2019-02-06T03:11:15.127Z,0.30
2019-02-06T03:13:44.154Z,0.30
2019-02-06T03:16:13.126Z,0.40
2019-02-06T03:18:42.158Z,0.40
2019-02-06T03:21:12.000Z,0.50
2019-02-06T03:23:41.556Z,0.60
2019-02-06T03:26:10.565Z,0.60
2019-02-06T03:28:39.338Z,0.70
2019-02-06T03:31:08.285Z,0.70
2019-02-06T03:33:37.237Z,0.70
2019-02-06T03:36:06.587Z,0.80
2019-02-06T03:38:35.467Z,0.90
2019-02-06T03:41:04.961Z,0.90
2019-02-06T03:43:33.832Z,1.00
2019-02-06T03:46:02.779Z,1.00
2019-02-06T03:48:31.781Z,1.10
2019-02-06T03:51:00.851Z,1.20
2019-02-06T03:53:30.747Z,1.30
2019-02-06T03:55:59.661Z,1.30
2019-02-06T03:58:31.126Z,1.40
2019-02-06T04:01:00.865Z,1.40
2019-02-06T04:03:29.931Z,1.40
2019-02-06T04:05:59.272Z,1.50
2019-02-06T04:08:28.157Z,1.60
2019-02-06T04:10:56.987Z,1.60
2019-02-06T04:13:25.834Z,1.70
2019-02-06T04:15:54.919Z,1.70
2019-02-06T04:18:23.680Z,1.80
2019-02-06T04:20:53.321Z,1.80
2019-02-06T04:23:22.442Z,1.70
2019-02-06T04:25:51.463Z,1.80
2019-02-06T04:28:20.496Z,1.90
2019-02-06T04:30:49.528Z,1.90
2019-02-06T04:33:18.360Z,1.90
2019-02-06T04:35:47.492Z,1.90
2019-02-06T04:38:16.648Z,2.00
2019-02-06T04:40:45.614Z,2.00
2019-02-06T04:43:14.498Z,1.90
2019-02-06T04:45:44.059Z,1.80
2019-02-06T04:48:12.871Z,1.80
2019-02-06T04:50:42.457Z,1.80
2019-02-06T04:53:11.509Z,1.80
2019-02-06T04:55:40.361Z,1.70
2019-02-06T04:58:09.242Z,1.70
2019-02-06T05:00:38.700Z,1.80
2019-02-06T05:03:07.848Z,1.80
2019-02-06T05:05:37.003Z,1.70
2019-02-06T05:08:06.234Z,1.70
2019-02-06T05:10:35.011Z,1.70
2019-02-06T05:13:04.112Z,1.70
2019-02-06T05:15:33.540Z,1.70
2019-02-06T05:18:02.437Z,1.70
2019-02-06T05:20:34.085Z,1.70
2019-02-06T05:23:03.148Z,1.70
2019-02-06T05:25:32.650Z,1.90
2019-02-06T05:28:01.918Z,1.90
2019-02-06T05:30:30.956Z,1.90
2019-02-06T05:32:59.907Z,1.90
2019-02-06T05:35:29.009Z,1.90
2019-02-06T05:37:57.898Z,1.80
2019-02-06T05:40:27.152Z,1.80
2019-02-06T05:42:56.205Z,1.80
2019-02-06T05:45:28.081Z,1.80
2019-02-06T05:47:57.103Z,1.90
2019-02-06T05:50:27.082Z,1.90
2019-02-06T05:52:56.097Z,1.80
2019-02-06T05:55:25.584Z,1.90
2019-02-06T05:57:54.784Z,1.80
2019-02-06T06:00:27.454Z,1.70
2019-02-06T06:02:56.534Z,1.70
2019-02-06T06:05:25.895Z,1.60
2019-02-06T06:07:54.899Z,1.70
2019-02-06T06:10:24.215Z,1.60
2019-02-06T06:12:53.270Z,1.60
2019-02-06T06:15:22.835Z,1.70
2019-02-06T06:17:51.760Z,1.70
2019-02-06T06:20:21.264Z,1.70
2019-02-06T06:22:51.177Z,1.70
2019-02-06T06:25:21.155Z,1.70
2019-02-06T06:27:50.641Z,1.70
2019-02-06T06:30:21.321Z,1.70
2019-02-06T06:32:50.276Z,1.80
2019-02-06T06:35:19.888Z,1.80
2019-02-06T06:38:00.820Z,1.80
2019-02-06T06:40:22.398Z,1.80
2019-02-06T06:42:53.692Z,1.80
2019-02-06T06:45:24.621Z,1.80
2019-02-06T06:47:53.833Z,1.90
2019-02-06T06:50:25.007Z,2.00
2019-02-06T06:52:54.175Z,2.10
2019-02-06T06:55:26.069Z,2.00
2019-02-06T06:57:55.143Z,2.00
2019-02-06T07:00:26.465Z,1.90
2019-02-06T07:02:55.421Z,1.90
2019-02-06T07:05:24.675Z,1.90
2019-02-06T07:07:54.259Z,1.90
2019-02-06T07:10:23.505Z,1.90
2019-02-06T07:12:52.657Z,2.00
2019-02-06T07:15:24.290Z,2.00
2019-02-06T07:17:53.455Z,2.00
2019-02-06T07:20:22.727Z,2.10
2019-02-06T07:22:51.673Z,2.10
2019-02-06T07:25:21.038Z,2.10
2019-02-06T07:27:50.110Z,2.00
2019-02-06T07:30:27.848Z,2.00
2019-02-06T07:32:56.958Z,2.10
2019-02-06T07:35:26.644Z,2.20
2019-02-06T07:37:56.306Z,2.20
2019-02-06T07:40:25.715Z,2.20
2019-02-06T07:42:54.699Z,2.30
2019-02-06T07:45:26.460Z,2.30
2019-02-06T07:47:55.431Z,2.40
2019-02-06T07:50:26.861Z,2.40
2019-02-06T07:52:56.323Z,2.40
2019-02-06T07:55:25.450Z,2.60
2019-02-06T07:57:54.629Z,2.70
2019-02-06T08:00:23.728Z,2.80
2019-02-06T08:02:54.331Z,2.90
2019-02-06T08:05:23.480Z,3.00
2019-02-06T08:07:52.681Z,3.10
2019-02-06T08:10:24.691Z,3.10
2019-02-06T08:12:53.774Z,3.20
2019-02-06T08:15:22.671Z,3.30
2019-02-06T08:17:51.763Z,3.40
2019-02-06T08:20:22.195Z,3.50
2019-02-06T08:22:51.845Z,3.60
2019-02-06T08:25:23.095Z,3.80
2019-02-06T08:27:52.235Z,3.90
2019-02-06T08:30:24.049Z,4.00
2019-02-06T08:32:53.501Z,4.20
2019-02-06T08:35:23.208Z,4.30
2019-02-06T08:37:52.940Z,4.40
2019-02-06T08:40:24.418Z,4.50
2019-02-06T08:42:53.714Z,4.60
2019-02-06T08:45:22.912Z,4.80
2019-02-06T08:47:52.328Z,4.80
2019-02-06T08:53:08.439Z,5.00
2019-02-06T08:55:37.230Z,5.20
2019-02-06T08:58:06.469Z,5.30
2019-02-06T09:00:37.651Z,5.50
2019-02-06T09:03:08.843Z,5.60
2019-02-06T09:05:38.159Z,5.80
2019-02-06T09:08:07.625Z,6.10
2019-02-06T09:10:36.799Z,6.60
2019-02-06T09:13:06.258Z,7.10
2019-02-06T09:15:35.038Z,7.70
2019-02-06T09:18:03.920Z,8.10
2019-02-06T09:20:32.805Z,8.10
2019-02-06T09:23:02.679Z,8.00
2019-02-06T09:25:31.649Z,8.00
2019-02-06T09:28:00.443Z,7.90
2019-02-06T09:30:31.616Z,7.70
2019-02-06T09:33:01.131Z,7.40
2019-02-06T09:35:30.208Z,7.20
2019-02-06T09:37:59.211Z,7.10
2019-02-06T09:40:30.176Z,7.00
2019-02-06T09:42:59.121Z,7.00
2019-02-06T09:45:28.083Z,7.00
2019-02-06T09:47:57.067Z,7.10
2019-02-06T09:50:28.902Z,7.20
2019-02-06T09:52:57.792Z,7.30
2019-02-06T09:55:26.646Z,7.40
2019-02-06T09:57:55.563Z,7.60
2019-02-06T10:00:27.210Z,7.70
2019-02-06T10:02:55.995Z,7.70
2019-02-06T10:05:25.122Z,7.80
2019-02-06T10:07:53.942Z,8.00
2019-02-06T10:10:24.689Z,8.10
2019-02-06T10:12:53.604Z,8.10
2019-02-06T10:15:25.144Z,8.30
2019-02-06T10:17:55.113Z,8.40
2019-02-06T10:20:27.197Z,8.50
2019-02-06T10:22:55.931Z,8.60
2019-02-06T10:25:24.857Z,8.60
2019-02-06T10:27:53.668Z,8.40
2019-02-06T10:30:25.527Z,8.40
2019-02-06T10:32:54.372Z,8.30
2019-02-06T10:35:23.145Z,8.30
2019-02-06T10:37:51.982Z,8.10
2019-02-06T10:40:20.957Z,8.00
2019-02-06T10:42:49.719Z,8.00
2019-02-06T10:45:21.010Z,8.10
2019-02-06T10:47:50.916Z,8.10
2019-02-06T10:50:22.542Z,8.20
2019-02-06T10:52:51.319Z,8.30
2019-02-06T10:55:20.167Z,8.40
2019-02-06T10:57:49.027Z,8.40
2019-02-06T11:00:20.606Z,8.40
2019-02-06T11:02:50.476Z,8.50
2019-02-06T11:05:19.564Z,8.50
2019-02-06T11:07:48.517Z,8.60
2019-02-06T11:10:20.611Z,8.70
2019-02-06T11:12:49.434Z,8.80
2019-02-06T11:15:19.767Z,8.90
2019-02-06T11:17:49.260Z,9.10
2019-02-06T11:20:20.747Z,9.20
2019-02-06T11:22:49.572Z,9.30
2019-02-06T11:25:18.526Z,9.40
2019-02-06T11:27:47.270Z,9.40
2019-02-06T11:30:19.393Z,9.30
2019-02-06T11:32:57.551Z,9.40
2019-02-06T11:35:26.248Z,9.40
2019-02-06T11:37:55.114Z,9.40
2019-02-06T11:40:25.720Z,9.40
2019-02-06T11:42:54.940Z,9.40
2019-02-06T11:45:26.490Z,9.30
2019-02-06T11:47:55.304Z,9.20
2019-02-06T11:50:25.953Z,9.20
2019-02-06T11:52:54.697Z,9.20
2019-02-06T11:55:26.582Z,9.30
2019-02-06T11:57:55.693Z,9.40
2019-02-06T12:00:26.913Z,9.40
2019-02-06T12:02:55.657Z,9.30
2019-02-06T12:05:24.366Z,9.30
2019-02-06T12:07:53.148Z,9.30
2019-02-06T12:10:22.768Z,9.30
2019-02-06T12:12:51.566Z,9.40
2019-02-06T12:15:21.238Z,9.50
2019-02-06T12:17:50.074Z,9.60
2019-02-06T12:20:21.441Z,9.70
2019-02-06T12:22:50.534Z,9.80
2019-02-06T12:25:20.068Z,9.90
2019-02-06T12:27:54.010Z,9.90
2019-02-06T12:30:24.696Z,10.00
2019-02-06T12:32:53.897Z,9.90
2019-02-06T12:35:23.257Z,9.90
2019-02-06T12:37:52.024Z,10.00
2019-02-06T12:40:22.088Z,10.10
2019-02-06T12:42:50.986Z,10.10
2019-02-06T12:45:21.985Z,10.00
2019-02-06T12:47:51.278Z,10.00
2019-02-06T12:50:21.754Z,10.00
2019-02-06T12:52:50.558Z,10.00
2019-02-06T12:55:22.092Z,10.00
2019-02-06T12:57:51.390Z,10.10
2019-02-06T13:00:22.897Z,10.10
2019-02-06T13:02:52.210Z,10.00
2019-02-06T13:05:21.264Z,10.10
2019-02-06T13:07:50.502Z,10.10
2019-02-06T13:10:32.935Z,10.30
2019-02-06T13:12:53.497Z,10.50
2019-02-06T13:15:22.461Z,10.50
2019-02-06T13:17:51.579Z,10.30
2019-02-06T13:20:22.915Z,10.00
2019-02-06T13:22:51.874Z,10.00
2019-02-06T13:25:22.100Z,9.90
2019-02-06T13:27:51.051Z,9.80
2019-02-06T13:30:22.681Z,9.90
2019-02-06T13:32:52.041Z,10.00
2019-02-06T13:35:21.100Z,10.10
2019-02-06T13:37:50.127Z,10.10
2019-02-06T13:40:21.142Z,10.00
2019-02-06T13:42:50.003Z,10.10
2019-02-06T13:45:21.607Z,10.10
2019-02-06T13:47:50.379Z,10.10
2019-02-06T13:50:22.336Z,10.00
2019-02-06T13:52:51.704Z,10.00
2019-02-06T13:55:20.537Z,10.00
2019-02-06T13:57:49.331Z,9.90
2019-02-06T14:00:20.954Z,10.00
2019-02-06T14:02:50.587Z,10.00
2019-02-06T14:05:22.378Z,10.00
2019-02-06T14:07:51.720Z,10.00
2019-02-06T14:10:23.317Z,10.00
2019-02-06T14:12:52.304Z,10.10
2019-02-06T14:15:24.284Z,10.20
2019-02-06T14:17:53.214Z,10.30
2019-02-06T14:20:23.479Z,10.30
2019-02-06T14:22:55.087Z,10.20
2019-02-06T14:25:26.707Z,10.10
2019-02-06T14:27:58.293Z,10.00
2019-02-06T14:30:30.124Z,10.10
2019-02-06T14:33:01.717Z,10.00
2019-02-06T14:35:33.238Z,10.00
2019-02-06T14:38:04.783Z,10.00
2019-02-06T14:40:36.788Z,10.00
2019-02-06T14:43:08.436Z,9.90
2019-02-06T14:45:38.424Z,9.90
2019-02-06T14:48:09.944Z,9.80
2019-02-06T14:50:41.602Z,9.70
2019-02-06T14:53:13.358Z,9.70
2019-02-06T14:55:44.895Z,9.70
2019-02-06T14:58:14.804Z,9.60
2019-02-06T15:00:44.949Z,9.60
2019-02-06T15:03:16.728Z,9.60
2019-02-06T15:05:48.488Z,9.60
2019-02-06T15:08:20.062Z,9.60
2019-02-06T15:10:51.639Z,9.50
2019-02-06T15:13:23.184Z,9.40
2019-02-06T15:15:54.266Z,9.40
2019-02-06T15:18:27.171Z,9.40
2019-02-06T15:20:59.188Z,9.30
2019-02-06T15:23:32.901Z,9.30
2019-02-06T15:26:02.617Z,9.20
2019-02-06T15:28:32.559Z,9.20
2019-02-06T15:31:04.497Z,9.20
2019-02-06T15:33:34.489Z,9.20
2019-02-06T15:36:06.597Z,9.20
2019-02-06T15:38:38.104Z,9.10
2019-02-06T15:41:09.715Z,9.10
2019-02-06T15:43:40.264Z,9.10
2019-02-06T15:46:08.688Z,9.10
2019-02-06T15:48:40.331Z,9.00
2019-02-06T15:51:11.877Z,9.00
2019-02-06T15:53:43.426Z,9.00
2019-02-06T15:56:15.091Z,9.00
2019-02-06T15:58:44.997Z,9.00
2019-02-06T16:01:16.574Z,8.90
2019-02-06T16:03:49.082Z,8.90
2019-02-06T16:06:23.418Z,8.90
2019-02-06T16:08:55.589Z,8.90
2019-02-06T16:11:27.178Z,8.80
2019-02-06T16:13:58.894Z,8.80
2019-02-06T16:16:28.259Z,8.70
2019-02-06T16:18:59.949Z,8.70
2019-02-06T16:21:31.832Z,8.70
2019-02-06T16:24:03.491Z,8.70
2019-02-06T16:26:35.192Z,8.60
2019-02-06T16:29:06.757Z,8.60
2019-02-06T16:31:37.878Z,8.60
2019-02-06T16:34:09.878Z,8.50
2019-02-06T16:36:41.485Z,8.50
2019-02-06T16:39:13.196Z,8.40
2019-02-06T16:41:53.076Z,8.30
2019-02-06T16:44:18.191Z,8.30
2019-02-06T16:46:50.028Z,8.20
2019-02-06T16:49:21.688Z,8.20
2019-02-06T16:51:53.261Z,8.20
2019-02-06T16:54:24.963Z,8.20
2019-02-06T16:56:56.560Z,8.20
2019-02-06T16:59:27.571Z,8.10
2019-02-06T17:01:59.248Z,8.10
2019-02-06T17:04:30.768Z,8.00
2019-02-06T17:07:02.415Z,7.90
2019-02-06T17:09:33.234Z,7.80
2019-02-06T17:12:04.900Z,7.80
2019-02-06T17:14:35.378Z,7.70
2019-02-06T17:17:07.014Z,7.70
2019-02-06T17:19:38.700Z,7.70
2019-02-06T17:22:10.265Z,7.70
2019-02-06T17:24:41.956Z,7.70
2019-02-06T17:27:13.473Z,7.70
2019-02-06T17:29:45.062Z,7.70
2019-02-06T17:32:16.663Z,7.70
2019-02-06T17:34:48.441Z,7.70
2019-02-06T17:37:18.433Z,7.70
2019-02-06T17:39:50.039Z,7.70
2019-02-06T17:42:20.061Z,7.60
2019-02-06T17:44:51.779Z,7.60
2019-02-06T17:47:22.911Z,7.50
2019-02-06T17:49:54.554Z,7.50
2019-02-06T17:52:25.661Z,7.40
2019-02-06T17:54:59.504Z,7.40
2019-02-06T17:57:27.488Z,7.30
2019-02-06T17:59:56.624Z,7.20
2019-02-06T18:02:25.593Z,7.20
2019-02-06T18:04:54.524Z,7.10
2019-02-06T18:07:23.409Z,7.10
2019-02-06T18:09:52.340Z,7.00
2019-02-06T18:12:26.581Z,7.00
2019-02-06T18:14:52.097Z,7.00
2019-02-06T18:17:21.024Z,7.00
2019-02-06T18:19:49.941Z,7.00
2019-02-06T18:22:18.719Z,7.00
2019-02-06T18:24:47.491Z,7.00
2019-02-06T18:27:16.283Z,7.00
2019-02-06T18:29:45.014Z,7.00
2019-02-06T18:32:13.898Z,7.00
2019-02-06T18:34:42.784Z,7.00
2019-02-06T18:37:12.664Z,7.00
2019-02-06T18:39:41.423Z,7.10
2019-02-06T18:42:10.620Z,7.20
2019-02-06T18:44:39.475Z,7.30
2019-02-06T18:47:08.270Z,7.40
2019-02-06T18:49:37.138Z,7.40
2019-02-06T18:52:07.051Z,7.50
2019-02-06T18:54:35.898Z,7.50
2019-02-06T18:57:05.462Z,7.50
2019-02-06T18:59:34.448Z,7.60
2019-02-06T19:02:03.332Z,7.70
2019-02-06T19:04:33.574Z,7.70
2019-02-06T19:07:07.502Z,7.60
2019-02-06T19:09:36.404Z,7.60
2019-02-06T19:12:05.843Z,7.60
2019-02-06T19:14:34.670Z,7.60
2019-02-06T19:17:03.701Z,7.60
2019-02-06T19:19:32.611Z,7.60
2019-02-06T19:22:01.401Z,7.50
2019-02-06T19:24:30.250Z,7.50
2019-02-06T19:26:58.996Z,7.50
2019-02-06T19:29:27.989Z,7.50
2019-02-06T19:31:58.556Z,7.50
2019-02-06T19:34:27.351Z,7.40
2019-02-06T19:36:56.248Z,7.50
2019-02-06T19:39:24.989Z,7.50
2019-02-06T19:41:53.946Z,7.50
2019-02-06T19:44:22.804Z,7.60
2019-02-06T19:46:51.654Z,7.50
2019-02-06T19:49:23.247Z,7.50
2019-02-06T19:51:51.505Z,7.50
2019-02-06T19:54:20.345Z,7.50
2019-02-06T19:56:49.249Z,7.50
2019-02-06T19:59:18.749Z,7.50
2019-02-06T20:01:47.540Z,7.50
2019-02-06T20:04:16.927Z,7.50
2019-02-06T20:06:47.096Z,7.50
2019-02-06T20:09:16.494Z,7.50
2019-02-06T20:11:45.369Z,7.50
2019-02-06T20:14:14.173Z,7.50
2019-02-06T20:16:43.012Z,7.50
2019-02-06T20:19:12.693Z,7.50
2019-02-06T20:21:44.651Z,7.50
2019-02-06T20:24:13.676Z,7.50
2019-02-06T20:26:42.503Z,7.50
2019-02-06T20:29:11.337Z,7.50
2019-02-06T20:31:40.275Z,7.50
2019-02-06T20:34:09.196Z,7.50
2019-02-06T20:36:38.056Z,7.50
2019-02-06T20:39:07.918Z,7.50
2019-02-06T20:41:36.792Z,7.50
2019-02-06T20:44:05.824Z,7.50
2019-02-06T20:46:35.377Z,7.50
2019-02-06T20:49:04.375Z,7.50
2019-02-06T20:51:33.246Z,7.50
2019-02-06T20:54:04.096Z,7.60
2019-02-06T20:56:32.906Z,7.60
2019-02-06T20:59:04.313Z,7.70
2019-02-06T21:01:33.199Z,7.70
2019-02-06T21:04:02.122Z,7.70
2019-02-06T21:06:31.180Z,7.70
2019-02-06T21:09:00.142Z,7.70
2019-02-06T21:11:29.463Z,7.70
2019-02-06T21:13:58.603Z,7.70
2019-02-06T21:16:29.151Z,7.70
2019-02-06T21:18:58.551Z,7.70
2019-02-06T21:21:27.446Z,7.80
2019-02-06T21:23:56.235Z,7.80
2019-02-06T21:26:28.323Z,7.80
2019-02-06T21:29:01.337Z,7.70
2019-02-06T21:31:34.495Z,7.70
2019-02-06T21:34:05.820Z,7.70
2019-02-06T21:36:33.769Z,7.70
2019-02-06T21:39:02.576Z,7.70
2019-02-06T21:41:32.043Z,7.70
2019-02-06T21:44:03.791Z,7.70
2019-02-06T21:46:32.566Z,7.70
2019-02-06T21:49:01.411Z,7.70
2019-02-06T21:51:31.320Z,7.70
2019-02-06T21:54:00.099Z,7.70
2019-02-06T21:56:28.945Z,7.70
2019-02-06T21:58:57.634Z,7.70
2019-02-06T22:01:27.294Z,7.70
2019-02-06T22:03:56.461Z,7.70
2019-02-06T22:06:25.368Z,7.70
2019-02-06T22:08:54.338Z,7.70
2019-02-06T22:11:23.084Z,7.70
2019-02-06T22:13:55.291Z,7.60
2019-02-06T22:16:22.237Z,7.60
2019-02-06T22:18:51.080Z,7.60
2019-02-06T22:21:19.927Z,7.50
2019-02-06T22:23:48.681Z,7.50
2019-02-06T22:26:17.493Z,7.50
2019-02-06T22:28:46.341Z,7.50
2019-02-06T22:31:15.417Z,7.50
2019-02-06T22:33:44.204Z,7.50
2019-02-06T22:36:13.061Z,7.50
2019-02-06T22:38:41.849Z,7.50
2019-02-06T22:41:11.184Z,7.50
2019-02-06T22:43:40.139Z,7.50
2019-02-06T22:46:09.039Z,7.50
2019-02-06T22:48:38.271Z,7.50
2019-02-06T22:51:07.176Z,7.50
2019-02-06T22:53:36.028Z,7.50
2019-02-06T22:56:05.229Z,7.60
2019-02-06T22:58:34.124Z,7.50
2019-02-06T23:01:05.657Z,7.50
2019-02-06T23:03:36.563Z,7.50
2019-02-06T23:06:06.382Z,7.50
2019-02-06T23:08:35.275Z,7.50
2019-02-06T23:11:04.490Z,7.50
2019-02-06T23:13:33.402Z,7.40
2019-02-06T23:16:02.214Z,7.40
2019-02-06T23:18:31.045Z,7.40
2019-02-06T23:20:59.833Z,7.40
2019-02-06T23:23:28.599Z,7.40
2019-02-06T23:25:57.487Z,7.40
2019-02-06T23:28:26.307Z,7.40
2019-02-06T23:30:56.675Z,7.40
2019-02-06T23:33:25.512Z,7.40
2019-02-06T23:35:54.289Z,7.40
2019-02-06T23:38:23.138Z,7.40
2019-02-06T23:40:51.870Z,7.40
2019-02-06T23:43:20.604Z,7.40
2019-02-06T23:45:49.348Z,7.40
2019-02-06T23:48:18.160Z,7.30
2019-02-06T23:50:46.895Z,7.30
2019-02-06T23:53:15.680Z,7.30
2019-02-06T23:55:44.749Z,7.30
2019-02-06T23:58:13.515Z,7.30
